Time;durP1;ratioP1;P1;durP2;ratioP2;P2;SDS_P1;SDS_P2;PMS_P1;PMS_P2;Temp;Humidity;BMP_temperature;BMP_pressure;BME280_temperature;BME280_humidity;BME280_pressure;Samples;Min_cycle;Max_cycle;Signal;HPM_P1;HPM_P2
2022/09/07 00:01:27;;;;;;;6.77;3.60;;;28.20;99.90;;;;;;5064134;28;20220;-94
2022/09/07 00:04:02;;;;;;;5.33;3.20;;;27.80;99.90;;;;;;5066728;28;20207;-91
2022/09/07 00:06:34;;;;;;;4.68;3.50;;;27.70;99.90;;;;;;5061340;28;20335;-94
2022/09/07 00:09:08;;;;;;;4.33;3.40;;;27.60;99.90;;;;;;5064213;28;20196;-94
2022/09/07 00:11:42;;;;;;;5.23;3.70;;;27.70;99.90;;;;;;5067435;28;20234;-94
2022/09/07 00:14:18;;;;;;;6.30;3.83;;;27.70;99.90;;;;;;5070398;28;20229;-93
2022/09/07 00:17:07;;;;;;;5.90;4.33;;;27.90;99.90;;;;;;5068401;28;20239;-94
2022/09/07 00:22:33;;;;;;;5.90;3.73;;;27.70;99.90;;;;;;5068315;28;20232;-94
2022/09/07 00:25:23;;;;;;;6.30;3.80;;;27.70;99.90;;;;;;5053544;28;20208;-94
2022/09/07 00:28:01;;;;;;;7.50;3.67;;;27.60;99.90;;;;;;5069536;28;20200;-94
2022/09/07 00:30:35;;;;;;;5.53;3.60;;;27.60;99.90;;;;;;5053067;28;20211;-94
2022/09/07 00:33:24;;;;;;;5.30;3.60;;;27.70;99.90;;;;;;5069082;28;20192;-94
2022/09/07 00:36:05;;;;;;;4.80;3.40;;;27.60;99.90;;;;;;5052743;28;20226;-94
2022/09/07 00:38:53;;;;;;;4.13;3.33;;;27.70;99.90;;;;;;5069277;28;20208;-94
2022/09/07 00:41:31;;;;;;;6.97;3.70;;;27.70;99.50;;;;;;5070397;28;20204;-95
2022/09/07 00:51:04;;;;;;;5.27;3.40;;;27.40;98.90;;;;;;5007178;28;20240;-94
2022/09/07 00:53:39;;;;;;;5.47;3.70;;;27.40;97.80;;;;;;5004305;28;20260;-94
2022/09/07 00:59:43;;;;;;;5.67;3.70;;;27.10;97.00;;;;;;5036631;28;20224;-93
2022/09/07 01:05:25;;;;;;;4.40;3.10;;;26.90;97.50;;;;;;5040625;28;20545;-93
2022/09/07 01:08:04;;;;;;;5.53;3.13;;;26.80;96.40;;;;;;5050027;28;20204;-93
2022/09/07 01:10:40;;;;;;;4.03;3.20;;;26.60;96.80;;;;;;5038498;28;20228;-92
2022/09/07 01:13:13;;;;;;;4.93;3.20;;;26.40;95.50;;;;;;5036387;28;20231;-92
2022/09/07 01:15:53;;;;;;;4.70;3.17;;;26.30;94.80;;;;;;5037613;28;20204;-92
2022/09/07 01:18:37;;;;;;;6.83;3.17;;;26.20;94.80;;;;;;5037984;28;20303;-92
2022/09/07 01:21:28;;;;;;;4.57;3.20;;;26.00;95.10;;;;;;5021072;28;20233;-93
2022/09/07 01:24:32;;;;;;;3.30;3.00;;;26.00;95.50;;;;;;5047315;28;20221;-93
2022/09/07 01:27:28;;;;;;;4.70;2.80;;;25.90;95.00;;;;;;5055982;28;20219;-93
2022/09/07 01:30:06;;;;;;;5.57;2.87;;;25.80;96.00;;;;;;5127255;22;20236;-93
2022/09/07 01:32:54;;;;;;;3.53;2.73;;;25.60;96.60;;;;;;5074605;28;20192;-93
2022/09/07 01:35:33;;;;;;;5.33;3.07;;;25.40;97.20;;;;;;5067992;28;20216;-94
2022/09/07 01:38:10;;;;;;;4.20;2.77;;;25.10;98.40;;;;;;5057238;28;20317;-92
2022/09/07 01:40:49;;;;;;;4.30;2.60;;;24.80;98.50;;;;;;5057704;28;20617;-93
2022/09/07 01:43:34;;;;;;;3.50;2.63;;;24.70;98.60;;;;;;5069677;28;20204;-94
2022/09/07 01:49:43;;;;;;;5.23;2.90;;;24.40;99.90;;;;;;5276254;22;20198;-95
2022/09/07 01:52:19;;;;;;;5.63;2.47;;;24.20;99.90;;;;;;5038937;28;20270;-94
2022/09/07 01:54:59;;;;;;;5.63;2.73;;;24.10;99.90;;;;;;5020342;28;20235;-94
2022/09/07 01:57:38;;;;;;;4.37;3.10;;;24.10;99.90;;;;;;5038707;28;20228;-94
2022/09/07 02:00:13;;;;;;;5.67;2.90;;;24.00;99.90;;;;;;5023652;28;20575;-94
2022/09/07 02:02:51;;;;;;;4.90;3.00;;;23.80;99.90;;;;;;5040422;28;20247;-94
2022/09/07 02:05:26;;;;;;;6.30;3.10;;;23.60;99.90;;;;;;5041501;28;20653;-94
2022/09/07 02:10:54;;;;;;;4.27;3.13;;;23.40;99.90;;;;;;5042566;28;20275;-93
2022/09/07 02:13:34;;;;;;;3.47;3.00;;;23.30;99.90;;;;;;5042752;28;20205;-93
2022/09/07 02:16:10;;;;;;;3.70;2.63;;;23.10;99.90;;;;;;5042814;28;20228;-94
2022/09/07 02:19:01;;;;;;;4.13;3.10;;;23.00;99.90;;;;;;5028727;28;20240;-92
2022/09/07 02:21:40;;;;;;;4.53;3.17;;;22.80;99.90;;;;;;5042977;28;20657;-92
2022/09/07 02:24:17;;;;;;;5.80;3.00;;;22.70;99.90;;;;;;5045606;28;20213;-93
2022/09/07 02:26:52;;;;;;;5.30;3.20;;;22.60;99.90;;;;;;5045070;28;20673;-93
2022/09/07 02:29:32;;;;;;;6.70;3.73;;;22.40;99.90;;;;;;5045042;28;20201;-93
2022/09/07 02:32:03;;;;;;;5.40;3.37;;;22.20;99.90;;;;;;5046086;28;20267;-93
2022/09/07 02:34:37;;;;;;;5.33;3.53;;;22.00;99.90;;;;;;5029214;28;20234;-94
2022/09/07 02:37:13;;;;;;;5.73;3.43;;;21.90;99.90;;;;;;5027313;28;20216;-94
2022/09/07 02:39:49;;;;;;;5.27;3.43;;;21.80;99.90;;;;;;5048071;28;20208;-93
2022/09/07 02:42:21;;;;;;;5.70;3.00;;;21.60;99.90;;;;;;5050850;28;20205;-93
2022/09/07 02:44:53;;;;;;;4.07;3.03;;;21.50;99.90;;;;;;5050042;28;20295;-93
2022/09/07 02:47:49;;;;;;;5.43;2.93;;;21.40;99.90;;;;;;5024531;28;20217;-93
2022/09/07 02:50:40;;;;;;;5.93;3.20;;;21.30;99.90;;;;;;5013417;28;20224;-93
2022/09/07 02:53:25;;;;;;;5.53;3.30;;;21.10;99.90;;;;;;5020002;28;20690;-93
2022/09/07 02:56:22;;;;;;;5.43;3.43;;;21.00;99.90;;;;;;5087707;22;20271;-93
2022/09/07 02:59:08;;;;;;;6.37;3.80;;;20.90;99.90;;;;;;5064554;28;20227;-93
2022/09/07 03:01:48;;;;;;;6.30;3.77;;;20.80;99.90;;;;;;5062449;28;20212;-93
2022/09/07 03:04:29;;;;;;;3.90;3.17;;;20.70;99.90;;;;;;5082350;28;20211;-94
2022/09/07 03:07:32;;;;;;;5.30;3.30;;;20.60;99.90;;;;;;5104210;22;20247;-93
2022/09/07 03:10:09;;;;;;;4.73;3.23;;;20.50;99.90;;;;;;5061046;28;20679;-93
2022/09/07 03:12:44;;;;;;;5.73;3.33;;;20.30;99.90;;;;;;5043616;28;20204;-93
2022/09/07 03:15:19;;;;;;;6.60;3.10;;;20.30;99.90;;;;;;5061092;28;20208;-93
2022/09/07 03:17:50;;;;;;;4.17;3.40;;;20.20;99.90;;;;;;5060686;28;20269;-93
2022/09/07 03:20:23;;;;;;;7.20;2.97;;;20.10;99.90;;;;;;5040832;28;20232;-93
2022/09/07 03:22:54;;;;;;;5.07;3.50;;;20.10;99.90;;;;;;5040706;28;20209;-93
2022/09/07 03:25:31;;;;;;;3.80;3.20;;;20.00;99.90;;;;;;5039992;28;20213;-92
2022/09/07 03:28:10;;;;;;;6.53;3.70;;;19.90;99.90;;;;;;5041496;28;20224;-93
2022/09/07 03:30:45;;;;;;;5.83;3.77;;;19.90;99.90;;;;;;5042507;28;20205;-94
2022/09/07 03:36:11;;;;;;;8.00;4.03;;;19.80;99.90;;;;;;5051436;28;20209;-92
2022/09/07 03:38:46;;;;;;;8.20;3.47;;;19.80;99.90;;;;;;5050859;28;20223;-92
2022/09/07 03:41:31;;;;;;;5.90;4.27;;;19.70;99.90;;;;;;5037072;28;20688;-93
2022/09/07 03:44:07;;;;;;;5.90;4.40;;;19.60;99.90;;;;;;5037060;28;20201;-92
2022/09/07 03:46:47;;;;;;;6.13;4.00;;;19.50;99.90;;;;;;5035572;28;20227;-92
2022/09/07 03:49:22;;;;;;;6.40;4.10;;;19.50;99.90;;;;;;5050929;28;20299;-92
2022/09/07 04:00:38;;;;;;;6.77;4.90;;;19.10;99.90;;;;;;5038763;28;20248;-92
2022/09/07 04:03:17;;;;;;;10.67;5.70;;;19.10;99.90;;;;;;5047346;28;20296;-93
2022/09/07 04:05:49;;;;;;;6.40;4.13;;;19.10;99.90;;;;;;5045418;28;20643;-93
2022/09/07 04:08:21;;;;;;;6.83;4.40;;;19.00;99.90;;;;;;5053440;28;20216;-93
2022/09/07 04:10:52;;;;;;;5.97;4.30;;;19.00;99.90;;;;;;5058406;28;20219;-93
2022/09/07 04:13:26;;;;;;;6.53;4.03;;;19.00;99.90;;;;;;5075205;28;20214;-92
2022/09/07 04:16:03;;;;;;;8.90;3.90;;;19.00;99.90;;;;;;5074886;28;20203;-93
2022/09/07 04:18:38;;;;;;;7.67;4.13;;;19.00;99.90;;;;;;5054711;28;20266;-92
2022/09/07 04:21:25;;;;;;;5.37;3.83;;;19.00;99.90;;;;;;5069799;28;20197;-94
2022/09/07 04:23:57;;;;;;;7.47;3.73;;;19.00;99.90;;;;;;5069720;28;20208;-93
2022/09/07 04:26:31;;;;;;;5.90;3.93;;;19.00;99.90;;;;;;5069200;28;20235;-93
2022/09/07 04:29:06;;;;;;;6.50;3.60;;;19.00;99.90;;;;;;5068257;28;20216;-92
2022/09/07 04:31:38;;;;;;;5.33;3.53;;;18.90;99.90;;;;;;5062497;28;20542;-93
2022/09/07 04:34:10;;;;;;;4.83;3.40;;;18.90;99.90;;;;;;5045745;28;20238;-93
2022/09/07 04:36:43;;;;;;;6.43;3.57;;;18.90;99.90;;;;;;5064377;28;20211;-93
2022/09/07 04:39:15;;;;;;;5.77;3.17;;;18.80;99.90;;;;;;5057195;28;20239;-93
2022/09/07 04:41:46;;;;;;;3.17;2.83;;;18.80;99.90;;;;;;5056976;28;20200;-93
2022/09/07 04:44:20;;;;;;;5.67;2.97;;;18.80;99.90;;;;;;5057180;28;20200;-93
2022/09/07 04:46:51;;;;;;;4.30;2.43;;;18.80;99.90;;;;;;5057001;28;20730;-93
2022/09/07 04:49:23;;;;;;;4.33;2.90;;;18.80;99.90;;;;;;5057069;28;20196;-93
2022/09/07 04:51:54;;;;;;;3.63;2.47;;;18.80;99.90;;;;;;5056220;28;20209;-93
2022/09/07 04:54:27;;;;;;;3.93;2.80;;;18.70;99.90;;;;;;5057175;28;20205;-93
2022/09/07 04:56:58;;;;;;;3.50;2.63;;;18.60;99.90;;;;;;5057442;28;20212;-93
2022/09/07 04:59:32;;;;;;;4.80;2.53;;;18.50;99.90;;;;;;5056444;28;20293;-93
2022/09/07 05:02:03;;;;;;;5.40;3.10;;;18.40;99.90;;;;;;5060287;28;20223;-93
2022/09/07 05:04:37;;;;;;;4.03;2.47;;;18.40;99.90;;;;;;5057790;28;20243;-93
2022/09/07 05:07:09;;;;;;;7.33;3.17;;;18.30;99.90;;;;;;5056592;28;20239;-93
2022/09/07 05:09:40;;;;;;;4.30;3.17;;;18.20;99.90;;;;;;5039759;28;20223;-93
2022/09/07 05:12:11;;;;;;;5.70;2.40;;;18.20;99.90;;;;;;5056396;28;20208;-93
2022/09/07 05:14:45;;;;;;;6.20;3.00;;;18.20;99.90;;;;;;5056743;28;20209;-93
2022/09/07 05:17:20;;;;;;;4.73;2.57;;;18.10;99.90;;;;;;5056783;28;20661;-93
2022/09/07 05:19:53;;;;;;;8.00;3.10;;;18.00;99.90;;;;;;5058596;28;20706;-91
2022/09/07 05:22:26;;;;;;;10.93;3.90;;;18.00;99.90;;;;;;5056229;28;20204;-93
2022/09/07 05:24:57;;;;;;;6.67;2.90;;;17.90;99.90;;;;;;5058859;28;20299;-92
2022/09/07 05:27:28;;;;;;;4.53;2.70;;;17.90;99.90;;;;;;5058520;28;20212;-92
2022/09/07 05:30:01;;;;;;;3.90;2.57;;;17.80;99.90;;;;;;5059391;28;20228;-92
2022/09/07 05:32:34;;;;;;;3.13;2.83;;;17.70;99.90;;;;;;5058996;28;20691;-92
2022/09/07 05:35:05;;;;;;;4.37;2.83;;;17.60;99.90;;;;;;5058115;28;20204;-92
2022/09/07 05:37:36;;;;;;;6.97;2.93;;;17.50;99.90;;;;;;5061515;28;20944;-91
2022/09/07 05:40:10;;;;;;;6.10;3.60;;;17.50;99.90;;;;;;5061838;28;20270;-91
2022/09/07 05:42:41;;;;;;;4.10;3.03;;;17.40;99.90;;;;;;5059665;28;20216;-92
2022/09/07 05:45:16;;;;;;;4.50;3.10;;;17.40;99.90;;;;;;5060437;28;20208;-91
2022/09/07 05:47:51;;;;;;;6.40;3.10;;;17.30;99.90;;;;;;5060834;28;20361;-91
2022/09/07 05:50:22;;;;;;;3.80;2.87;;;17.20;99.90;;;;;;5060402;28;20212;-91
2022/09/07 05:52:53;;;;;;;6.00;2.97;;;17.20;99.90;;;;;;5059192;28;20281;-91
2022/09/07 05:55:24;;;;;;;3.73;2.67;;;17.20;99.90;;;;;;5060861;28;20211;-91
2022/09/07 05:57:59;;;;;;;4.17;2.40;;;17.10;99.90;;;;;;5059766;28;20216;-92
2022/09/07 06:00:34;;;;;;;2.57;2.00;;;17.10;99.90;;;;;;5060156;28;20254;-92
2022/09/07 06:03:06;;;;;;;4.07;2.33;;;17.00;99.90;;;;;;5059543;28;20204;-91
2022/09/07 06:05:38;;;;;;;3.30;2.10;;;17.00;99.90;;;;;;5042903;28;20239;-92
2022/09/07 06:08:09;;;;;;;3.27;1.80;;;17.00;99.90;;;;;;5059853;28;20212;-91
2022/09/07 06:10:40;;;;;;;3.70;1.90;;;16.90;99.90;;;;;;5059875;28;20252;-92
2022/09/07 06:13:12;;;;;;;3.20;1.70;;;16.90;99.90;;;;;;5059403;28;20691;-92
2022/09/07 06:15:45;;;;;;;2.93;1.60;;;16.80;99.90;;;;;;5064509;28;20208;-88
2022/09/07 06:18:17;;;;;;;2.93;1.60;;;16.80;99.90;;;;;;5062009;28;20208;-92
2022/09/07 06:20:48;;;;;;;3.17;1.63;;;16.80;99.90;;;;;;5066747;28;20261;-91
2022/09/07 06:23:21;;;;;;;3.77;1.73;;;16.70;99.90;;;;;;5063192;28;20575;-90
2022/09/07 06:25:52;;;;;;;3.93;1.67;;;16.70;99.90;;;;;;5062442;28;20728;-91
2022/09/07 06:28:29;;;;;;;2.47;1.63;;;16.70;99.90;;;;;;5059865;28;20258;-92
2022/09/07 06:31:04;;;;;;;4.80;1.50;;;16.60;99.90;;;;;;5067735;28;20204;-91
2022/09/07 06:33:36;;;;;;;2.40;1.47;;;16.50;99.90;;;;;;5048371;28;20203;-92
2022/09/07 06:36:11;;;;;;;3.73;1.40;;;16.50;99.90;;;;;;5061397;28;20209;-92
2022/09/07 06:41:30;;;;;;;2.40;1.80;;;16.30;99.90;;;;;;5075418;28;20230;-93
2022/09/07 06:44:25;;;;;;;4.20;1.70;;;16.30;99.90;;;;;;5078261;28;20203;-91
2022/09/07 06:47:01;;;;;;;2.50;1.70;;;16.10;99.90;;;;;;5076408;28;20208;-91
2022/09/07 06:49:34;;;;;;;4.43;2.13;;;16.10;99.90;;;;;;5076854;28;20250;-91
2022/09/07 06:52:06;;;;;;;4.53;1.90;;;16.00;99.90;;;;;;5065839;28;20227;-90
2022/09/07 06:54:37;;;;;;;2.97;1.87;;;16.00;99.90;;;;;;5066358;28;20212;-93
2022/09/07 06:57:28;;;;;;;3.63;1.90;;;15.90;99.90;;;;;;5059115;28;20226;-91
2022/09/07 07:00:00;;;;;;;3.80;2.00;;;15.90;99.90;;;;;;5059736;28;20293;-92
2022/09/07 07:02:34;;;;;;;4.97;2.33;;;15.90;99.90;;;;;;5059023;28;20633;-92
2022/09/07 07:05:06;;;;;;;4.57;2.30;;;15.80;99.90;;;;;;5058958;28;20290;-92
2022/09/07 07:07:37;;;;;;;8.87;2.27;;;15.80;99.90;;;;;;5058870;28;20564;-92
2022/09/07 07:10:09;;;;;;;3.47;2.00;;;15.80;99.90;;;;;;5039162;28;20205;-92
2022/09/07 07:12:40;;;;;;;6.57;2.00;;;15.80;99.90;;;;;;5038349;28;20286;-92
2022/09/07 07:15:15;;;;;;;4.03;2.53;;;15.80;99.90;;;;;;5044053;28;20275;-91
2022/09/07 07:17:49;;;;;;;4.17;2.40;;;15.80;99.90;;;;;;5043506;28;20213;-92
2022/09/07 07:20:31;;;;;;;5.13;2.20;;;15.70;99.90;;;;;;5039428;28;20248;-92
2022/09/07 07:23:02;;;;;;;2.90;2.17;;;15.70;99.90;;;;;;5038146;28;20239;-92
2022/09/07 07:25:35;;;;;;;4.77;2.23;;;15.60;99.90;;;;;;5039159;28;20691;-92
2022/09/07 07:28:06;;;;;;;3.17;2.17;;;15.60;99.90;;;;;;5038715;28;20657;-92
2022/09/07 07:30:58;;;;;;;5.40;2.00;;;15.60;99.90;;;;;;5038973;28;20266;-92
2022/09/07 07:33:38;;;;;;;2.53;1.83;;;15.50;99.90;;;;;;5041044;28;20236;-92
2022/09/07 07:36:11;;;;;;;3.23;1.90;;;15.40;99.90;;;;;;5038886;28;20287;-92
2022/09/07 07:38:43;;;;;;;2.30;1.90;;;15.40;99.90;;;;;;5038280;28;20207;-92
2022/09/07 07:41:33;;;;;;;2.37;1.63;;;15.40;99.90;;;;;;5037023;28;20331;-93
2022/09/07 07:44:19;;;;;;;4.63;1.90;;;15.40;99.90;;;;;;5039972;28;20594;-92
2022/09/07 07:46:51;;;;;;;4.43;1.90;;;15.40;99.90;;;;;;5039556;28;20209;-92
2022/09/07 07:49:26;;;;;;;5.70;1.83;;;15.40;99.90;;;;;;5042317;28;20264;-92
2022/09/07 07:51:58;;;;;;;3.17;1.73;;;15.30;99.90;;;;;;5040030;28;20295;-92
2022/09/07 07:54:46;;;;;;;2.63;1.80;;;15.30;99.90;;;;;;5039831;28;20207;-92
2022/09/07 07:57:18;;;;;;;5.67;1.87;;;15.20;99.90;;;;;;5054673;22;21220;-91
2022/09/07 08:00:02;;;;;;;3.83;1.77;;;15.20;99.90;;;;;;5043782;28;20189;-92
2022/09/07 08:02:35;;;;;;;5.33;2.20;;;15.10;99.90;;;;;;5040798;28;20278;-92
2022/09/07 08:05:11;;;;;;;6.30;1.70;;;15.10;99.90;;;;;;5040081;28;20213;-92
2022/09/07 08:07:42;;;;;;;2.43;1.70;;;15.10;99.90;;;;;;5023662;28;20193;-91
2022/09/07 08:10:13;;;;;;;4.23;2.03;;;15.10;99.90;;;;;;5038032;28;20220;-91
2022/09/07 08:12:46;;;;;;;3.17;2.03;;;15.00;99.90;;;;;;5037208;28;20275;-91
2022/09/07 08:15:18;;;;;;;2.60;1.77;;;15.00;99.90;;;;;;5037977;28;20212;-91
2022/09/07 08:17:49;;;;;;;3.10;1.83;;;15.00;99.90;;;;;;5037867;28;20266;-91
2022/09/07 08:20:39;;;;;;;5.03;2.00;;;15.00;99.90;;;;;;5089022;22;20232;-92
2022/09/07 08:23:10;;;;;;;3.90;2.10;;;15.00;99.90;;;;;;5039431;28;20209;-92
2022/09/07 08:25:50;;;;;;;2.07;1.80;;;14.90;99.90;;;;;;5040506;28;20669;-92
2022/09/07 08:28:26;;;;;;;6.97;2.30;;;14.90;99.90;;;;;;5039016;28;20220;-92
2022/09/07 08:30:58;;;;;;;4.40;2.30;;;15.00;99.90;;;;;;5041408;28;20212;-92
2022/09/07 08:33:30;;;;;;;5.23;1.80;;;14.90;99.90;;;;;;5038128;28;20239;-92
2022/09/07 08:36:06;;;;;;;3.37;2.13;;;14.90;99.90;;;;;;5020318;28;20291;-92
2022/09/07 08:38:38;;;;;;;4.17;2.10;;;14.90;99.90;;;;;;5038837;28;20212;-92
2022/09/07 08:41:34;;;;;;;4.23;1.90;;;14.90;99.90;;;;;;5037439;28;20236;-92
2022/09/07 08:44:12;;;;;;;3.57;1.90;;;14.80;99.90;;;;;;5020043;28;20263;-92
2022/09/07 08:46:48;;;;;;;3.70;2.03;;;14.80;99.90;;;;;;5020783;28;20284;-91
2022/09/07 08:49:27;;;;;;;2.67;1.70;;;14.80;99.90;;;;;;5048588;28;20248;-92
2022/09/07 08:52:03;;;;;;;3.47;1.87;;;14.90;99.90;;;;;;5040010;28;20207;-92
2022/09/07 08:54:34;;;;;;;2.47;1.60;;;14.80;99.90;;;;;;5056492;28;20208;-91
2022/09/07 08:57:06;;;;;;;3.07;1.70;;;14.80;99.90;;;;;;5056465;28;20208;-91
2022/09/07 09:00:02;;;;;;;4.60;1.87;;;14.80;99.90;;;;;;5056969;28;20204;-91
2022/09/07 09:02:34;;;;;;;2.17;1.40;;;14.80;99.90;;;;;;5056159;28;20239;-92
2022/09/07 09:05:26;;;;;;;2.53;1.60;;;14.80;99.90;;;;;;5056987;28;20579;-92
2022/09/07 09:08:22;;;;;;;1.90;1.50;;;14.80;99.90;;;;;;5057125;28;20209;-91
2022/09/07 09:11:04;;;;;;;3.63;1.73;;;14.70;99.90;;;;;;5053832;28;20606;-91
2022/09/07 09:13:48;;;;;;;2.57;1.73;;;14.70;99.90;;;;;;5056740;28;20289;-92
2022/09/07 09:16:24;;;;;;;5.83;1.60;;;14.70;99.90;;;;;;5058013;28;20208;-92
2022/09/07 09:19:07;;;;;;;3.33;1.70;;;14.70;99.90;;;;;;5050900;28;20653;-92
2022/09/07 09:21:38;;;;;;;3.83;1.73;;;14.70;99.90;;;;;;5039572;28;20296;-92
2022/09/07 09:24:16;;;;;;;3.03;1.80;;;14.60;99.90;;;;;;5041604;28;20205;-91
2022/09/07 09:26:54;;;;;;;4.43;2.17;;;14.60;99.90;;;;;;5051342;28;20220;-91
2022/09/07 09:29:25;;;;;;;4.73;1.50;;;14.60;99.90;;;;;;5051438;28;20704;-91
2022/09/07 09:31:56;;;;;;;2.73;1.83;;;14.60;99.90;;;;;;5042880;28;20240;-92
2022/09/07 09:34:27;;;;;;;2.30;1.87;;;14.60;99.90;;;;;;5053368;28;20213;-91
2022/09/07 09:37:04;;;;;;;3.40;1.80;;;14.60;99.90;;;;;;5056606;28;20220;-91
2022/09/07 09:39:41;;;;;;;4.07;1.87;;;14.60;99.90;;;;;;5056602;28;20212;-92
2022/09/07 09:42:24;;;;;;;2.57;1.70;;;14.60;99.90;;;;;;5053189;28;20235;-92
2022/09/07 09:45:07;;;;;;;2.10;1.67;;;14.60;99.90;;;;;;5052226;28;20263;-92
2022/09/07 09:47:39;;;;;;;3.57;1.70;;;14.60;99.90;;;;;;5056023;28;20221;-91
2022/09/07 09:50:23;;;;;;;3.00;2.03;;;14.60;99.90;;;;;;5056021;28;20287;-92
2022/09/07 09:53:25;;;;;;;3.40;1.53;;;14.60;99.90;;;;;;5055267;28;20211;-92
2022/09/07 09:55:59;;;;;;;6.30;1.57;;;14.50;99.90;;;;;;5056527;28;20193;-92
2022/09/07 09:58:33;;;;;;;4.10;1.60;;;14.50;99.90;;;;;;5056588;28;20196;-93
2022/09/07 10:01:27;;;;;;;2.87;1.60;;;14.50;99.90;;;;;;5056137;28;20251;-96
2022/09/07 10:03:59;;;;;;;3.33;1.90;;;14.50;99.90;;;;;;5056740;28;20196;-92
2022/09/07 10:06:38;;;;;;;2.50;1.80;;;14.50;99.90;;;;;;5053050;28;20240;-93
2022/09/07 10:09:18;;;;;;;8.27;1.77;;;14.50;99.90;;;;;;5051545;28;20864;-92
2022/09/07 10:11:59;;;;;;;2.10;1.60;;;14.50;99.90;;;;;;5050721;28;20208;-93
2022/09/07 10:14:47;;;;;;;2.97;1.80;;;14.50;99.90;;;;;;5053295;28;20215;-93
2022/09/07 10:17:24;;;;;;;5.33;1.67;;;14.50;99.90;;;;;;5042348;28;20209;-92
2022/09/07 10:20:02;;;;;;;3.43;1.43;;;14.50;99.90;;;;;;5040012;28;20299;-92
2022/09/07 10:22:36;;;;;;;3.30;1.50;;;14.50;99.90;;;;;;5042435;28;20282;-92
2022/09/07 10:25:29;;;;;;;2.37;1.33;;;14.50;99.90;;;;;;5043601;28;20552;-93
2022/09/07 10:28:17;;;;;;;2.53;1.50;;;14.50;99.90;;;;;;5042980;28;20239;-93
2022/09/07 10:31:05;;;;;;;4.07;1.43;;;14.50;99.90;;;;;;5042113;28;20212;-93
2022/09/07 10:33:49;;;;;;;3.20;1.63;;;14.50;99.90;;;;;;5041578;28;20213;-93
2022/09/07 10:36:50;;;;;;;3.33;1.20;;;14.50;99.90;;;;;;5042099;28;20241;-92
2022/09/07 10:39:27;;;;;;;2.20;1.00;;;14.50;99.90;;;;;;5041507;28;20729;-92
2022/09/07 10:42:08;;;;;;;4.77;1.47;;;14.50;99.90;;;;;;5040234;28;20232;-90
2022/09/07 10:45:02;;;;;;;4.87;1.20;;;14.50;99.90;;;;;;5040299;28;20648;-93
2022/09/07 10:47:45;;;;;;;4.67;1.90;;;14.50;99.90;;;;;;5040358;28;20255;-93
2022/09/07 10:50:26;;;;;;;3.27;1.17;;;14.50;99.90;;;;;;5060398;28;20216;-93
2022/09/07 10:53:20;;;;;;;3.67;1.23;;;14.50;99.90;;;;;;5062526;28;20231;-93
2022/09/07 10:56:15;;;;;;;3.70;1.50;;;14.50;99.90;;;;;;5060642;28;20287;-93
2022/09/07 10:59:02;;;;;;;2.97;1.40;;;14.50;99.90;;;;;;5064377;28;20691;-93
2022/09/07 11:01:49;;;;;;;4.93;1.40;;;14.50;99.90;;;;;;5063135;28;20212;-93
2022/09/07 11:04:53;;;;;;;5.80;1.40;;;14.60;99.90;;;;;;5051140;28;20224;-93
2022/09/07 11:07:47;;;;;;;4.27;0.97;;;14.50;99.90;;;;;;5019832;28;20350;-92
2022/09/07 11:10:26;;;;;;;4.20;1.40;;;14.50;99.90;;;;;;5021446;28;20209;-92
2022/09/07 11:13:00;;;;;;;3.47;1.00;;;14.50;99.90;;;;;;5021316;28;20236;-93
2022/09/07 11:15:34;;;;;;;3.03;1.40;;;14.50;99.90;;;;;;5021209;28;20584;-93
2022/09/07 11:18:15;;;;;;;2.40;1.40;;;14.50;99.90;;;;;;5020405;28;20210;-93
2022/09/07 11:23:42;;;;;;;4.67;1.30;;;14.60;99.90;;;;;;5034791;28;20264;-92
2022/09/07 11:26:40;;;;;;;3.67;1.30;;;14.50;99.90;;;;;;5033177;28;20273;-93
2022/09/07 11:29:18;;;;;;;4.90;1.53;;;14.50;99.90;;;;;;5021552;28;20216;-93
2022/09/07 11:32:08;;;;;;;4.23;1.30;;;14.50;99.90;;;;;;5017972;28;20292;-93
2022/09/07 11:34:45;;;;;;;1.80;1.23;;;14.50;99.90;;;;;;5020458;28;20706;-93
2022/09/07 11:37:23;;;;;;;3.33;1.30;;;14.50;99.90;;;;;;5026393;28;20198;-93
2022/09/07 11:40:02;;;;;;;3.97;1.30;;;14.50;99.90;;;;;;5020153;28;20271;-93
2022/09/07 11:42:36;;;;;;;2.90;1.57;;;14.50;99.90;;;;;;5018971;28;20263;-93
2022/09/07 11:45:18;;;;;;;2.70;1.70;;;14.40;99.90;;;;;;5019740;28;20276;-93
2022/09/07 11:47:55;;;;;;;3.30;1.37;;;14.40;99.90;;;;;;5020541;28;20201;-93
2022/09/07 11:50:33;;;;;;;4.70;1.50;;;14.40;99.90;;;;;;5019907;28;20267;-93
2022/09/07 11:53:14;;;;;;;3.57;1.73;;;14.30;99.90;;;;;;5003231;28;20206;-92
2022/09/07 11:56:02;;;;;;;3.43;1.57;;;14.30;99.90;;;;;;5020864;28;20210;-92
2022/09/07 11:59:14;;;;;;;3.33;1.50;;;14.30;99.90;;;;;;5021343;28;20207;-92
2022/09/07 12:01:59;;;;;;;4.20;1.80;;;14.20;99.90;;;;;;5000981;28;20213;-92
2022/09/07 12:04:46;;;;;;;4.07;1.43;;;14.20;99.90;;;;;;5018848;28;20202;-92
2022/09/07 12:07:52;;;;;;;2.33;1.60;;;14.20;99.90;;;;;;5040273;28;20217;-92
2022/09/07 12:10:56;;;;;;;4.57;1.50;;;14.10;99.90;;;;;;5020087;28;20221;-92
2022/09/07 12:14:03;;;;;;;3.03;1.70;;;14.00;99.90;;;;;;5018176;28;20221;-92
2022/09/07 12:16:51;;;;;;;3.43;1.53;;;14.00;99.90;;;;;;5013842;28;20205;-92
2022/09/07 12:19:24;;;;;;;2.90;1.37;;;14.00;99.90;;;;;;5030919;28;20267;-93
2022/09/07 12:22:00;;;;;;;4.13;1.70;;;13.90;99.90;;;;;;5041649;28;20279;-92
2022/09/07 12:24:44;;;;;;;3.97;2.37;;;13.90;99.90;;;;;;5049137;28;20230;-93
2022/09/07 12:27:38;;;;;;;4.47;1.93;;;13.90;99.90;;;;;;5056276;28;20212;-91
2022/09/07 12:30:53;;;;;;;3.13;1.50;;;13.90;99.90;;;;;;5053314;28;20648;-91
2022/09/07 12:33:33;;;;;;;3.57;1.60;;;13.80;99.90;;;;;;5050882;28;20228;-91
2022/09/07 12:36:39;;;;;;;3.77;1.70;;;13.70;99.90;;;;;;5045233;28;20208;-91
2022/09/07 12:39:24;;;;;;;6.50;1.80;;;13.70;99.90;;;;;;5036715;28;20255;-91
2022/09/07 12:42:22;;;;;;;6.47;2.03;;;13.70;99.90;;;;;;5037635;28;20212;-91
2022/09/07 12:45:32;;;;;;;5.30;2.23;;;13.60;99.90;;;;;;5038082;28;20212;-91
2022/09/07 12:48:11;;;;;;;4.00;2.00;;;13.50;99.90;;;;;;5023380;28;20216;-92
2022/09/07 12:50:50;;;;;;;5.47;2.20;;;13.50;99.90;;;;;;5037762;28;20290;-92
2022/09/07 12:53:31;;;;;;;2.63;2.00;;;13.40;99.90;;;;;;5036851;28;20221;-92
2022/09/07 12:56:25;;;;;;;3.47;2.43;;;13.50;99.90;;;;;;5037630;28;20731;-92
2022/09/07 12:59:18;;;;;;;2.97;1.90;;;13.40;99.90;;;;;;5037307;28;20621;-91
2022/09/07 13:01:59;;;;;;;3.83;2.30;;;13.30;99.90;;;;;;5019789;28;20213;-92
2022/09/07 13:04:54;;;;;;;6.50;2.60;;;13.30;99.90;;;;;;5037106;28;20605;-92
2022/09/07 13:08:21;;;;;;;5.10;2.53;;;13.20;99.90;;;;;;5038112;28;20216;-92
2022/09/07 13:10:52;;;;;;;5.87;3.00;;;13.20;99.90;;;;;;4938663;28;20282;-92
2022/09/07 13:13:28;;;;;;;5.17;2.73;;;13.20;99.90;;;;;;4975980;28;20234;-92
2022/09/07 13:16:39;;;;;;;4.77;2.80;;;13.10;99.90;;;;;;5005075;28;20305;-92
2022/09/07 13:20:08;;;;;;;5.63;3.30;;;13.10;99.90;;;;;;5043144;28;20642;-92
2022/09/07 13:23:09;;;;;;;3.73;3.00;;;13.00;99.90;;;;;;5034461;28;20668;-92
2022/09/07 13:25:47;;;;;;;3.90;3.10;;;13.00;99.90;;;;;;5040603;28;20722;-92
2022/09/07 13:28:41;;;;;;;3.97;2.70;;;13.00;99.90;;;;;;5057224;28;20246;-92
2022/09/07 13:31:41;;;;;;;7.10;3.10;;;12.90;99.90;;;;;;5053975;28;20641;-92
2022/09/07 13:34:42;;;;;;;4.70;3.43;;;13.00;99.90;;;;;;5056463;28;20208;-91
2022/09/07 13:37:22;;;;;;;3.60;2.70;;;12.90;99.90;;;;;;5058147;28;20208;-92
2022/09/07 13:39:56;;;;;;;5.00;2.97;;;12.90;99.90;;;;;;5059752;28;20212;-92
2022/09/07 13:42:32;;;;;;;6.93;3.30;;;12.90;99.90;;;;;;5057244;28;20211;-92
2022/09/07 13:45:05;;;;;;;4.33;3.13;;;12.90;99.90;;;;;;5056430;28;20211;-92
2022/09/07 13:47:52;;;;;;;3.40;2.37;;;13.00;99.90;;;;;;5056472;28;20236;-92
2022/09/07 13:50:40;;;;;;;3.87;2.30;;;13.00;99.90;;;;;;5014641;28;20229;-92
2022/09/07 13:53:38;;;;;;;3.80;2.50;;;13.10;99.90;;;;;;5016574;28;20213;-92
2022/09/07 13:56:22;;;;;;;4.50;2.40;;;13.20;99.90;;;;;;5018489;28;20212;-92
2022/09/07 13:58:54;;;;;;;4.97;2.50;;;13.20;99.90;;;;;;5021770;28;20279;-91
2022/09/07 14:01:27;;;;;;;4.67;2.50;;;13.20;99.90;;;;;;5009526;28;20604;-92
2022/09/07 14:04:06;;;;;;;9.60;2.87;;;13.30;99.90;;;;;;5027071;28;20237;-91
2022/09/07 14:06:40;;;;;;;5.07;2.47;;;13.30;99.90;;;;;;5035609;28;20268;-91
2022/09/07 14:09:18;;;;;;;4.90;2.20;;;13.30;99.90;;;;;;5047839;28;20235;-90
2022/09/07 14:11:51;;;;;;;4.73;2.30;;;13.30;99.90;;;;;;5053454;28;20311;-91
2022/09/07 14:14:24;;;;;;;4.43;2.57;;;13.40;99.90;;;;;;5052585;28;20209;-92
2022/09/07 14:17:03;;;;;;;4.07;2.27;;;13.40;99.90;;;;;;5048607;28;20209;-92
2022/09/07 14:19:39;;;;;;;2.40;2.00;;;13.50;99.90;;;;;;5054168;28;20223;-93
2022/09/07 14:22:16;;;;;;;4.53;2.33;;;13.50;99.90;;;;;;5061909;28;20208;-92
2022/09/07 14:24:51;;;;;;;3.60;2.13;;;13.60;99.90;;;;;;5057443;28;20228;-91
2022/09/07 14:27:26;;;;;;;3.47;1.87;;;13.70;99.90;;;;;;5074148;28;20208;-91
2022/09/07 14:30:15;;;;;;;5.70;1.83;;;13.70;99.90;;;;;;5074708;28;20208;-92
2022/09/07 14:32:47;;;;;;;3.70;1.60;;;13.80;99.90;;;;;;5068279;28;20208;-90